SBCJ/CKS METAR and TAF weather

Enter ICAO airport designator
Station Type Date Time Source
SBCJ METAR 2019/04/18 15:00 UTC NOAA

SBCJ 181500Z 07002KT 9999 SCT015 26/23 Q1016


Station Type Date Time Source
SBCJ Decoded METAR 2019/04/18 15:00 UTC NOAA

Carajas / Maraba, Brazil (SBCJ) 06-07S 050-00W
Apr 18, 2019 - 11:00 AM EDT / 2019.04.18 1500 UTC
Wind: from the ENE (070 degrees) at 2 MPH (2 KT):0
Visibility: greater than 7 mile(s):0
Sky conditions: partly cloudy
Temperature: 78 F (26 C)
Dew Point: 73 F (23 C)
Relative Humidity: 83%
Pressure (altimeter): 30.00 in. Hg (1016 hPa)
ob: SBCJ 181500Z 07002KT 9999 SCT015 26/23 Q1016
cycle: 15

Station Type Date Time Source
SBCJ TAF 2019/04/18 12:33 UTC NOAA

TAF SBCJ 181000Z 1812/1824 00000KT 9999 SCT014 TN23/1812Z TX27/1817Z
BECMG 1813/1815 06005KT SCT018
BECMG 1817/1819 08005KT SCT025
BECMG 1821/1823 00000KT CAVOK
RMK PFM

Example: see airport list